createdAt,value
2022-08-22T00:02:33.046Z,3.03
2022-08-22T00:02:44.827Z,1.67
2022-08-22T00:02:58.751Z,2.00
2022-08-22T00:03:01.920Z,1.67
2022-08-22T00:05:38.168Z,2.85
2022-08-22T00:09:04.258Z,3.00
2022-08-22T00:12:25.014Z,2.72
2022-08-22T00:15:43.247Z,3.33
2022-08-22T00:19:07.373Z,3.13
2022-08-22T00:22:29.232Z,3.20
2022-08-22T00:26:08.393Z,3.58
2022-08-22T00:29:19.614Z,3.35
2022-08-22T00:32:27.052Z,3.40
2022-08-22T00:35:45.253Z,3.20
2022-08-22T00:38:57.775Z,3.28
2022-08-22T00:42:29.517Z,3.33
2022-08-22T00:45:48.414Z,3.10
2022-08-22T00:49:22.801Z,3.38
2022-08-22T00:52:43.061Z,3.53
2022-08-22T00:55:54.344Z,3.15
2022-08-22T00:59:17.972Z,3.20
2022-08-22T01:02:55.125Z,3.60
2022-08-22T01:06:05.797Z,3.50
2022-08-22T01:09:36.343Z,3.63
2022-08-22T01:12:47.844Z,3.60
2022-08-22T01:16:00.062Z,3.40
2022-08-22T01:19:34.145Z,3.10
2022-08-22T01:22:41.891Z,3.42
2022-08-22T01:25:49.581Z,2.95
2022-08-22T01:29:11.170Z,3.20
2022-08-22T01:32:15.842Z,3.60
2022-08-22T01:35:32.897Z,3.63
2022-08-22T01:41:44.998Z,3.65
2022-08-22T01:45:22.039Z,3.75
2022-08-22T01:49:00.886Z,4.40
2022-08-22T01:52:20.654Z,3.78
2022-08-22T01:55:43.577Z,3.88
2022-08-22T01:58:57.361Z,4.32
2022-08-22T02:02:07.451Z,3.93
2022-08-22T02:05:39.060Z,3.72
2022-08-22T02:08:48.846Z,3.85
2022-08-22T02:11:53.448Z,4.00
2022-08-22T02:15:26.384Z,3.80
2022-08-22T02:18:41.175Z,4.53
2022-08-22T02:21:55.877Z,3.58
2022-08-22T02:25:15.063Z,3.78
2022-08-22T02:28:27.824Z,4.07
2022-08-22T02:31:29.332Z,3.60
2022-08-22T02:34:53.460Z,3.55
2022-08-22T02:38:13.932Z,3.55
2022-08-22T02:41:30.978Z,3.30
2022-08-22T02:47:47.369Z,3.60
2022-08-22T02:50:55.075Z,3.35
2022-08-22T02:54:02.889Z,3.47
2022-08-22T02:57:14.437Z,3.22
2022-08-22T03:00:31.682Z,3.40
2022-08-22T03:03:42.000Z,3.42
2022-08-22T03:07:01.157Z,3.35
2022-08-22T03:10:23.844Z,3.40
2022-08-22T03:13:36.510Z,3.30
2022-08-22T03:17:26.463Z,3.33
2022-08-22T03:20:46.315Z,3.53
2022-08-22T03:23:55.169Z,3.10
2022-08-22T03:27:05.838Z,3.13
2022-08-22T03:30:18.598Z,3.30
2022-08-22T03:33:23.683Z,3.35
2022-08-22T03:36:28.359Z,3.42
2022-08-22T03:39:44.017Z,3.22
2022-08-22T03:42:45.539Z,3.22
2022-08-22T03:45:52.973Z,3.35
2022-08-22T03:49:18.700Z,3.17
2022-08-22T03:53:01.494Z,3.35
2022-08-22T03:56:27.523Z,3.15
2022-08-22T03:59:42.712Z,3.03
2022-08-22T04:02:59.728Z,3.20
2022-08-22T04:06:19.454Z,2.72
2022-08-22T04:09:30.173Z,3.17
2022-08-22T04:12:56.885Z,3.40
2022-08-22T04:16:23.235Z,3.08
2022-08-22T04:19:49.363Z,2.80
2022-08-22T04:22:54.641Z,2.92
2022-08-22T04:26:10.822Z,2.70
2022-08-22T04:29:22.192Z,2.80
2022-08-22T04:32:52.964Z,3.17
2022-08-22T04:36:03.583Z,3.10
2022-08-22T04:39:09.099Z,2.90
2022-08-22T04:42:33.073Z,3.15
2022-08-22T04:45:42.183Z,3.05
2022-08-22T04:48:53.039Z,3.28
2022-08-22T04:52:24.872Z,3.08
2022-08-22T04:55:47.802Z,3.03
2022-08-22T04:59:07.984Z,3.20
2022-08-22T05:02:12.404Z,3.80
2022-08-22T05:05:23.188Z,3.60
2022-08-22T05:08:31.006Z,3.28
2022-08-22T05:11:35.283Z,2.92
2022-08-22T05:14:39.648Z,3.30
2022-08-22T05:17:43.838Z,3.17
2022-08-22T05:20:49.320Z,3.40
2022-08-22T05:24:06.691Z,3.50
2022-08-22T05:27:20.267Z,3.30
2022-08-22T05:30:25.993Z,3.58
2022-08-22T05:33:32.739Z,3.40
2022-08-22T05:39:46.908Z,2.95
2022-08-22T05:42:49.097Z,2.80
2022-08-22T05:45:52.059Z,2.65
2022-08-22T05:49:00.128Z,2.35
2022-08-22T05:52:39.890Z,2.10
2022-08-22T05:55:50.394Z,2.33
2022-08-22T05:58:57.653Z,2.50
2022-08-22T06:02:05.721Z,2.10
2022-08-22T06:05:12.042Z,2.10
2022-08-22T06:08:32.072Z,2.20
2022-08-22T06:11:50.119Z,2.30
2022-08-22T06:15:23.764Z,2.78
2022-08-22T06:18:27.735Z,2.70
2022-08-22T06:21:39.233Z,2.80
2022-08-22T06:24:41.439Z,2.70
2022-08-22T06:27:46.029Z,2.88
2022-08-22T06:30:50.585Z,3.20
2022-08-22T06:34:22.975Z,2.90
2022-08-22T06:37:32.450Z,2.90
2022-08-22T06:40:34.811Z,3.08
2022-08-22T06:43:43.649Z,3.05
2022-08-22T06:46:48.330Z,3.05
2022-08-22T06:49:56.478Z,3.25
2022-08-22T06:53:13.084Z,2.97
2022-08-22T07:02:42.481Z,2.40
2022-08-22T07:05:44.274Z,2.78
2022-08-22T07:08:45.990Z,2.70
2022-08-22T07:11:48.275Z,2.60
2022-08-22T07:14:57.905Z,2.80
2022-08-22T07:18:03.379Z,2.60
2022-08-22T07:21:08.201Z,2.70
2022-08-22T07:24:16.475Z,2.55
2022-08-22T07:27:39.865Z,2.65
2022-08-22T07:31:08.740Z,2.60
2022-08-22T07:34:10.815Z,2.92
2022-08-22T07:37:40.880Z,2.90
2022-08-22T07:40:57.394Z,2.30
2022-08-22T07:44:05.162Z,2.33
2022-08-22T07:47:13.242Z,2.30
2022-08-22T07:50:23.082Z,2.10
2022-08-22T07:53:47.300Z,2.40
2022-08-22T07:57:05.244Z,2.20
2022-08-22T08:00:17.047Z,2.20
2022-08-22T08:03:22.204Z,2.30
2022-08-22T08:06:25.799Z,2.28
2022-08-22T08:09:33.082Z,2.60
2022-08-22T08:12:38.336Z,2.13
2022-08-22T08:15:43.058Z,2.00
2022-08-22T08:18:48.429Z,2.22
2022-08-22T08:21:54.161Z,2.47
2022-08-22T08:25:00.479Z,2.25
2022-08-22T08:31:29.062Z,2.20
2022-08-22T08:34:34.708Z,2.50
2022-08-22T08:37:55.388Z,2.35
2022-08-22T08:41:22.490Z,2.10
2022-08-22T08:44:49.502Z,2.33
2022-08-22T08:48:25.818Z,2.45
2022-08-22T08:51:57.548Z,2.13
2022-08-22T08:55:53.745Z,2.28
2022-08-22T08:59:13.697Z,2.15
2022-08-22T09:02:50.348Z,2.13
2022-08-22T09:06:24.627Z,2.03
2022-08-22T09:09:52.278Z,1.98
2022-08-22T09:13:40.638Z,1.95
2022-08-22T09:16:51.559Z,1.90
2022-08-22T09:20:17.814Z,1.90
2022-08-22T09:23:53.273Z,1.70
2022-08-22T09:27:01.229Z,1.88
2022-08-22T09:30:16.593Z,1.80
2022-08-22T09:33:22.136Z,1.77
2022-08-22T09:37:01.648Z,1.70
2022-08-22T09:40:18.839Z,1.90
2022-08-22T09:43:37.522Z,1.80
2022-08-22T09:46:51.984Z,1.50
2022-08-22T09:50:05.959Z,1.70
2022-08-22T09:53:13.860Z,1.70
2022-08-22T09:56:26.040Z,1.90
2022-08-22T09:59:27.862Z,1.73
2022-08-22T10:02:50.560Z,1.70
2022-08-22T10:06:13.251Z,1.80
2022-08-22T10:10:06.877Z,1.80
2022-08-22T10:13:26.776Z,1.88
2022-08-22T10:16:49.414Z,1.73
2022-08-22T10:20:13.557Z,1.70
2022-08-22T10:23:24.206Z,1.58
2022-08-22T10:26:50.840Z,1.58
2022-08-22T10:30:16.620Z,1.50
2022-08-22T10:33:37.450Z,1.70
2022-08-22T10:36:50.549Z,1.70
2022-08-22T10:40:04.747Z,1.80
2022-08-22T10:43:13.420Z,1.80
2022-08-22T10:46:21.459Z,1.70
2022-08-22T10:49:29.086Z,1.80
2022-08-22T10:52:39.131Z,1.65
2022-08-22T10:55:43.685Z,1.88
2022-08-22T10:58:56.182Z,1.67
2022-08-22T11:01:57.768Z,1.58
2022-08-22T11:05:31.515Z,1.63
2022-08-22T11:08:51.499Z,1.77
2022-08-22T11:12:04.482Z,1.70
2022-08-22T11:15:28.217Z,1.80
2022-08-22T11:19:02.805Z,1.38
2022-08-22T11:22:33.851Z,1.80
2022-08-22T11:25:58.766Z,1.55
2022-08-22T11:29:34.024Z,1.80
2022-08-22T11:33:02.986Z,1.67
2022-08-22T11:36:12.015Z,1.85
2022-08-22T11:39:37.654Z,1.77
2022-08-22T11:42:53.417Z,1.70
2022-08-22T11:46:00.092Z,1.63
2022-08-22T11:49:32.934Z,1.60
2022-08-22T11:52:55.454Z,1.70
2022-08-22T11:56:21.695Z,1.60
2022-08-22T11:59:41.056Z,1.57
2022-08-22T12:03:16.416Z,1.60
2022-08-22T12:06:40.469Z,1.60
2022-08-22T12:09:55.225Z,1.60
2022-08-22T12:13:16.046Z,1.70
2022-08-22T12:16:20.688Z,1.38
2022-08-22T12:19:32.861Z,1.55
2022-08-22T12:23:05.559Z,1.77
2022-08-22T12:26:19.239Z,1.52
2022-08-22T12:29:45.442Z,1.67
2022-08-22T12:33:09.871Z,1.70
2022-08-22T12:36:23.443Z,1.52
2022-08-22T12:39:45.265Z,1.33
2022-08-22T12:42:56.042Z,1.58
2022-08-22T12:46:06.831Z,1.63
2022-08-22T12:49:20.901Z,1.55
2022-08-22T12:52:34.644Z,1.50
2022-08-22T12:55:44.847Z,1.63
2022-08-22T12:59:08.114Z,1.60
2022-08-22T13:02:20.112Z,1.45
2022-08-22T13:05:28.135Z,1.60
2022-08-22T13:08:35.283Z,1.55
2022-08-22T13:11:40.430Z,1.80
2022-08-22T13:14:46.851Z,1.67
2022-08-22T13:17:51.747Z,1.48
2022-08-22T13:20:57.221Z,1.63
2022-08-22T13:24:10.518Z,1.50
2022-08-22T13:27:21.763Z,1.65
2022-08-22T13:30:37.900Z,1.40
2022-08-22T13:33:47.729Z,1.50
2022-08-22T13:36:52.006Z,1.65
2022-08-22T13:40:00.596Z,1.50
2022-08-22T13:43:07.535Z,1.50
2022-08-22T13:46:10.945Z,1.40
2022-08-22T13:49:19.681Z,1.50
2022-08-22T13:52:30.563Z,1.75
2022-08-22T13:55:44.686Z,1.58
2022-08-22T13:58:57.197Z,1.70
2022-08-22T14:02:37.149Z,1.60
2022-08-22T14:05:46.801Z,1.70
2022-08-22T14:08:51.824Z,1.63
2022-08-22T14:12:12.042Z,1.48
2022-08-22T14:15:22.217Z,1.63
2022-08-22T14:18:36.540Z,1.48
2022-08-22T14:21:51.290Z,1.50
2022-08-22T14:24:58.344Z,1.50
2022-08-22T14:28:06.370Z,1.80
2022-08-22T14:31:14.475Z,1.70
2022-08-22T14:34:16.659Z,1.70
2022-08-22T14:37:25.539Z,1.50
2022-08-22T14:40:33.421Z,1.58
2022-08-22T14:43:58.668Z,1.63
2022-08-22T14:47:04.754Z,1.55
2022-08-22T14:50:35.755Z,1.40
2022-08-22T14:53:40.287Z,1.63
2022-08-22T14:56:44.699Z,1.63
2022-08-22T14:59:52.535Z,1.70
2022-08-22T15:03:05.408Z,1.73
2022-08-22T15:06:13.541Z,1.70
2022-08-22T15:09:31.008Z,1.50
2022-08-22T15:12:40.650Z,1.80
2022-08-22T15:15:54.317Z,1.55
2022-08-22T15:18:57.896Z,1.77
2022-08-22T15:22:21.750Z,1.77
2022-08-22T15:25:34.321Z,1.52
2022-08-22T15:28:52.256Z,1.80
2022-08-22T15:31:58.891Z,1.80
2022-08-22T15:35:08.479Z,1.67
2022-08-22T15:38:32.457Z,1.65
2022-08-22T15:41:43.883Z,1.80
2022-08-22T15:44:47.206Z,1.80
2022-08-22T15:47:53.089Z,1.60
2022-08-22T15:51:01.233Z,1.60
2022-08-22T15:54:24.907Z,1.70
2022-08-22T15:57:31.836Z,1.60
2022-08-22T16:00:41.948Z,1.70
2022-08-22T16:03:58.390Z,1.45
2022-08-22T16:07:01.763Z,1.55
2022-08-22T16:10:09.391Z,1.60
2022-08-22T16:13:26.437Z,1.48
2022-08-22T16:16:49.877Z,1.40
2022-08-22T16:20:15.801Z,1.80
2022-08-22T16:23:22.101Z,1.50
2022-08-22T16:26:49.310Z,1.65
2022-08-22T16:30:01.753Z,1.30
2022-08-22T16:33:05.621Z,1.40
2022-08-22T16:36:57.400Z,1.30
2022-08-22T16:40:00.348Z,1.60
2022-08-22T16:43:13.713Z,1.60
2022-08-22T16:46:37.400Z,1.30
2022-08-22T16:49:51.350Z,1.27
2022-08-22T16:52:58.102Z,1.33
2022-08-22T16:56:22.693Z,1.40
2022-08-22T17:00:14.943Z,1.40
2022-08-22T17:03:18.104Z,1.40
2022-08-22T17:06:32.274Z,1.42
2022-08-22T17:09:52.583Z,1.33
2022-08-22T17:13:26.508Z,1.40
2022-08-22T17:16:45.270Z,1.40
2022-08-22T17:20:04.064Z,1.25
2022-08-22T17:23:15.664Z,1.33
2022-08-22T17:26:26.301Z,1.42
2022-08-22T17:29:48.934Z,1.50
2022-08-22T17:33:33.569Z,1.23
2022-08-22T17:36:39.881Z,1.20
2022-08-22T17:40:03.906Z,1.30
2022-08-22T17:43:49.081Z,1.45
2022-08-22T17:47:01.895Z,1.30
2022-08-22T17:50:14.070Z,1.75
2022-08-22T17:53:18.666Z,1.80
2022-08-22T17:56:34.144Z,1.60
2022-08-22T17:59:51.416Z,1.50
2022-08-22T18:03:22.058Z,1.58
2022-08-22T18:06:29.928Z,1.80
2022-08-22T18:09:39.619Z,1.60
2022-08-22T18:12:51.845Z,1.40
2022-08-22T18:15:58.557Z,1.33
2022-08-22T18:19:12.429Z,1.30
2022-08-22T18:22:28.674Z,1.55
2022-08-22T18:25:39.563Z,1.50
2022-08-22T18:29:08.887Z,1.50
2022-08-22T18:32:18.654Z,1.40
2022-08-22T18:35:49.844Z,1.48
2022-08-22T18:38:57.480Z,1.50
2022-08-22T18:42:11.249Z,1.40
2022-08-22T18:45:17.727Z,1.75
2022-08-22T18:48:29.337Z,1.70
2022-08-22T18:51:38.277Z,1.40
2022-08-22T18:54:46.367Z,1.58
2022-08-22T18:58:22.539Z,1.40
2022-08-22T19:01:42.164Z,1.50
2022-08-22T19:05:05.216Z,1.80
2022-08-22T19:08:28.692Z,1.50
2022-08-22T19:11:40.977Z,1.77
2022-08-22T19:15:01.996Z,1.45
2022-08-22T19:18:27.626Z,1.70
2022-08-22T19:21:55.375Z,1.80
2022-08-22T19:25:18.290Z,1.42
2022-08-22T19:28:23.215Z,1.40
2022-08-22T19:31:41.835Z,1.40
2022-08-22T19:34:47.700Z,1.55
2022-08-22T19:38:03.301Z,1.80
2022-08-22T19:41:04.942Z,1.42
2022-08-22T19:44:11.668Z,1.70
2022-08-22T19:47:20.770Z,1.73
2022-08-22T19:50:22.350Z,1.70
2022-08-22T19:53:40.378Z,1.60
2022-08-22T19:57:02.900Z,1.70
2022-08-22T20:00:12.667Z,1.92
2022-08-22T20:03:19.760Z,1.83
2022-08-22T20:06:44.690Z,1.80
2022-08-22T20:10:05.441Z,1.70
2022-08-22T20:13:22.908Z,1.67
2022-08-22T20:16:59.333Z,1.80
2022-08-22T20:20:27.927Z,1.85
2022-08-22T20:23:34.831Z,1.90
2022-08-22T20:26:52.138Z,1.70
2022-08-22T20:30:15.679Z,1.50
2022-08-22T20:33:26.380Z,1.90
2022-08-22T20:36:29.486Z,1.70
2022-08-22T20:39:58.547Z,1.75
2022-08-22T20:43:13.881Z,1.90
2022-08-22T20:46:55.007Z,1.70
2022-08-22T20:50:01.912Z,1.70
2022-08-22T20:53:15.053Z,1.80
2022-08-22T20:56:18.940Z,1.80
2022-08-22T20:59:38.467Z,1.83
2022-08-22T21:03:13.385Z,1.60
2022-08-22T21:06:19.313Z,1.80
2022-08-22T21:09:39.935Z,2.03
2022-08-22T21:12:41.680Z,1.88
2022-08-22T21:15:49.644Z,1.73
2022-08-22T21:18:53.057Z,1.90
2022-08-22T21:22:14.096Z,1.60
2022-08-22T21:25:15.922Z,2.00
2022-08-22T21:28:28.388Z,1.73
2022-08-22T21:31:42.437Z,2.00
2022-08-22T21:34:47.734Z,2.13
2022-08-22T21:37:49.837Z,1.80
2022-08-22T21:40:51.806Z,1.73
2022-08-22T21:43:54.171Z,1.83
2022-08-22T21:46:57.964Z,1.70
2022-08-22T21:50:12.697Z,1.70
2022-08-22T21:53:27.734Z,1.88
2022-08-22T21:56:29.563Z,1.90
2022-08-22T21:59:59.387Z,1.85
2022-08-22T22:03:02.835Z,1.80
2022-08-22T22:06:06.524Z,2.00
2022-08-22T22:09:11.955Z,1.75
2022-08-22T22:12:16.377Z,1.85
2022-08-22T22:15:21.568Z,2.08
2022-08-22T22:18:27.002Z,1.85
2022-08-22T22:21:29.024Z,1.83
2022-08-22T22:24:30.714Z,1.90
2022-08-22T22:27:32.587Z,1.80
2022-08-22T22:30:34.745Z,1.80
2022-08-22T22:33:38.677Z,1.92
2022-08-22T22:36:41.208Z,1.77
2022-08-22T22:39:42.974Z,2.10
2022-08-22T22:42:44.839Z,2.30
2022-08-22T22:45:46.771Z,1.98
2022-08-22T22:48:48.449Z,1.73
2022-08-22T22:51:50.403Z,1.90
2022-08-22T22:54:52.809Z,1.98
2022-08-22T22:57:58.618Z,1.85
2022-08-22T23:01:13.422Z,2.22
2022-08-22T23:04:15.069Z,1.98
2022-08-22T23:07:17.310Z,2.00
2022-08-22T23:10:22.041Z,2.00
2022-08-22T23:13:24.224Z,1.90
2022-08-22T23:16:28.108Z,2.30
2022-08-22T23:19:30.104Z,2.00
2022-08-22T23:22:31.803Z,2.08
2022-08-22T23:25:34.294Z,1.95
2022-08-22T23:28:36.214Z,1.90
2022-08-22T23:31:39.820Z,2.10
2022-08-22T23:34:45.788Z,2.15
2022-08-22T23:37:47.414Z,2.05
2022-08-22T23:40:49.200Z,2.25
2022-08-22T23:43:54.955Z,1.85
2022-08-22T23:46:57.225Z,2.10
2022-08-22T23:49:58.996Z,1.90
2022-08-22T23:53:07.892Z,2.03
2022-08-22T23:56:21.395Z,1.98
2022-08-22T23:59:30.637Z,2.03
